MDST

Cibao International Airport

Santiago, Dominican Republic
TAF MDST 181600Z 1818/1918 12010KT 9999 BKN020 SCT070 PROB30 1818/1900 7000 TSRA FEW016CB BKN018 SCT070
Issued Valid From Valid To
Jul-18 @ 16:00 UTC
(6 hours ago)
Jul-18 @ 18:00 UTC
(4 hours ago)
Jul-19 @ 18:00 UTC
(in 20 hours)
Jul-18 @ 18:00 to Jul-19 @ 18:00
TAF MDST 181600Z 1818/1918 12010KT 9999 BKN020 SCT070
Wind Visibility Clouds
120° at 10 knots 10,000+ meters
  • Broken at 2,000' AGL
  • Scattered at 7,000' AGL
Probable  (Probability 30%) Jul-18 @ 18:00 to Jul-19 @ 00:00
PROB30 1818/1900 7000 TSRA FEW016CB BKN018 SCT070
Visibility Clouds Conditions
7,001 meters
  • Few at 1,600' AGL
  • Broken at 1,800' AGL
  • Scattered at 7,000' AGL
  • Thunderstorm
  • Rain
TAF MDST 181600Z 1818/1918 12010KT 9999 BKN020 SCT070 PROB30 1818/1900 7000 TSRA FEW016CB BKN018 SCT070
Issued Jul-18 @ 16:00 UTC
(6 hours ago)
Valid From Jul-18 @ 18:00 UTC
(4 hours ago)
Valid To Jul-19 @ 18:00 UTC
(in 20 hours)
Jul-18 @ 18:00 - Jul-19 @ 18:00
Wind Visibility
120° at 10 knots 10,000+ meters
Clouds
  • Broken at 2,000' AGL
  • Scattered at 7,000' AGL
Probability 30% Probable Jul-18 @ 18:00 - Jul-19 @ 00:00
Clouds
  • Few at 1,600' AGL
  • Broken at 1,800' AGL
  • Scattered at 7,000' AGL
Conditions
  • Thunderstorm
  • Rain